sensor_id;sensor_type;location;lat;lon;timestamp;temperature;humidity
23579;DHT22;11967;50.852;4.400;2023-06-22T00:00:58;27.00;99.90
23579;DHT22;11967;50.852;4.400;2023-06-22T00:03:25;27.00;99.90
23579;DHT22;11967;50.852;4.400;2023-06-22T00:05:51;27.00;99.90
23579;DHT22;11967;50.852;4.400;2023-06-22T00:08:17;26.90;99.90
23579;DHT22;11967;50.852;4.400;2023-06-22T00:10:44;26.90;99.90
23579;DHT22;11967;50.852;4.400;2023-06-22T00:13:10;26.80;99.90
23579;DHT22;11967;50.852;4.400;2023-06-22T00:15:37;26.90;99.90
23579;DHT22;11967;50.852;4.400;2023-06-22T00:18:04;26.90;99.90
23579;DHT22;11967;50.852;4.400;2023-06-22T00:20:30;26.80;99.90
23579;DHT22;11967;50.852;4.400;2023-06-22T00:22:58;26.90;99.90
23579;DHT22;11967;50.852;4.400;2023-06-22T00:25:24;27.00;99.90
23579;DHT22;11967;50.852;4.400;2023-06-22T00:27:51;27.00;99.90
23579;DHT22;11967;50.852;4.400;2023-06-22T00:30:18;26.90;99.90
23579;DHT22;11967;50.852;4.400;2023-06-22T00:32:45;26.90;99.90
23579;DHT22;11967;50.852;4.400;2023-06-22T00:35:11;26.90;99.90
23579;DHT22;11967;50.852;4.400;2023-06-22T00:37:38;26.90;99.90
23579;DHT22;11967;50.852;4.400;2023-06-22T00:40:06;26.90;99.90
23579;DHT22;11967;50.852;4.400;2023-06-22T00:42:34;27.00;99.90
23579;DHT22;11967;50.852;4.400;2023-06-22T00:44:59;27.00;99.90
23579;DHT22;11967;50.852;4.400;2023-06-22T00:47:25;27.00;99.90
23579;DHT22;11967;50.852;4.400;2023-06-22T00:49:51;26.90;99.90
23579;DHT22;11967;50.852;4.400;2023-06-22T00:52:21;26.80;99.90
23579;DHT22;11967;50.852;4.400;2023-06-22T00:54:50;26.80;99.90
23579;DHT22;11967;50.852;4.400;2023-06-22T00:57:17;26.80;99.90
23579;DHT22;11967;50.852;4.400;2023-06-22T00:59:47;26.80;99.90
23579;DHT22;11967;50.852;4.400;2023-06-22T01:02:13;26.80;99.90
23579;DHT22;11967;50.852;4.400;2023-06-22T01:04:39;26.80;99.90
23579;DHT22;11967;50.852;4.400;2023-06-22T01:09:56;26.80;99.90
23579;DHT22;11967;50.852;4.400;2023-06-22T01:12:23;26.70;99.90
23579;DHT22;11967;50.852;4.400;2023-06-22T01:14:55;26.60;99.90
23579;DHT22;11967;50.852;4.400;2023-06-22T01:17:21;26.50;99.90
23579;DHT22;11967;50.852;4.400;2023-06-22T01:19:50;26.50;99.90
23579;DHT22;11967;50.852;4.400;2023-06-22T01:22:23;26.50;99.90
23579;DHT22;11967;50.852;4.400;2023-06-22T01:25:12;26.50;99.90
23579;DHT22;11967;50.852;4.400;2023-06-22T01:27:40;26.50;99.90
23579;DHT22;11967;50.852;4.400;2023-06-22T01:30:14;26.50;99.90
23579;DHT22;11967;50.852;4.400;2023-06-22T01:32:41;26.50;99.90
23579;DHT22;11967;50.852;4.400;2023-06-22T01:35:11;26.40;99.90
23579;DHT22;11967;50.852;4.400;2023-06-22T01:37:38;26.40;99.90
23579;DHT22;11967;50.852;4.400;2023-06-22T01:40:05;26.50;99.90
23579;DHT22;11967;50.852;4.400;2023-06-22T01:42:32;26.60;99.90
23579;DHT22;11967;50.852;4.400;2023-06-22T01:44:58;26.60;99.90
23579;DHT22;11967;50.852;4.400;2023-06-22T01:47:25;26.50;99.90
23579;DHT22;11967;50.852;4.400;2023-06-22T01:49:51;26.50;99.90
23579;DHT22;11967;50.852;4.400;2023-06-22T01:52:18;26.50;99.90
23579;DHT22;11967;50.852;4.400;2023-06-22T01:54:44;26.40;99.90
23579;DHT22;11967;50.852;4.400;2023-06-22T01:57:10;26.50;99.90
23579;DHT22;11967;50.852;4.400;2023-06-22T01:59:44;26.30;99.90
23579;DHT22;11967;50.852;4.400;2023-06-22T02:02:11;26.50;99.90
23579;DHT22;11967;50.852;4.400;2023-06-22T02:04:49;26.40;99.90
23579;DHT22;11967;50.852;4.400;2023-06-22T02:07:18;26.40;99.90
23579;DHT22;11967;50.852;4.400;2023-06-22T02:09:47;26.60;99.90
23579;DHT22;11967;50.852;4.400;2023-06-22T02:12:18;26.50;99.90
23579;DHT22;11967;50.852;4.400;2023-06-22T02:14:45;26.50;99.90
23579;DHT22;11967;50.852;4.400;2023-06-22T02:17:12;26.50;99.90
23579;DHT22;11967;50.852;4.400;2023-06-22T02:19:40;26.40;99.90
23579;DHT22;11967;50.852;4.400;2023-06-22T02:22:06;26.30;99.90
23579;DHT22;11967;50.852;4.400;2023-06-22T02:24:32;26.40;99.90
23579;DHT22;11967;50.852;4.400;2023-06-22T02:27:00;26.50;99.90
23579;DHT22;11967;50.852;4.400;2023-06-22T02:29:25;26.30;99.90
23579;DHT22;11967;50.852;4.400;2023-06-22T02:31:53;26.40;99.90
23579;DHT22;11967;50.852;4.400;2023-06-22T02:34:18;26.50;99.90
23579;DHT22;11967;50.852;4.400;2023-06-22T02:36:46;26.50;99.90
23579;DHT22;11967;50.852;4.400;2023-06-22T02:39:20;26.40;99.90
23579;DHT22;11967;50.852;4.400;2023-06-22T02:41:48;26.30;99.90
23579;DHT22;11967;50.852;4.400;2023-06-22T02:44:13;26.30;99.90
23579;DHT22;11967;50.852;4.400;2023-06-22T02:46:39;26.10;99.90
23579;DHT22;11967;50.852;4.400;2023-06-22T02:49:05;26.20;99.90
23579;DHT22;11967;50.852;4.400;2023-06-22T02:51:33;26.20;99.90
23579;DHT22;11967;50.852;4.400;2023-06-22T02:53:59;26.10;99.90
23579;DHT22;11967;50.852;4.400;2023-06-22T02:56:26;26.20;99.90
23579;DHT22;11967;50.852;4.400;2023-06-22T02:58:51;26.20;99.90
23579;DHT22;11967;50.852;4.400;2023-06-22T03:01:17;26.30;99.90
23579;DHT22;11967;50.852;4.400;2023-06-22T03:03:48;26.20;99.90
23579;DHT22;11967;50.852;4.400;2023-06-22T03:06:14;26.20;99.90
23579;DHT22;11967;50.852;4.400;2023-06-22T03:08:41;26.00;99.90
23579;DHT22;11967;50.852;4.400;2023-06-22T03:11:08;26.00;99.90
23579;DHT22;11967;50.852;4.400;2023-06-22T03:13:33;26.00;99.90
23579;DHT22;11967;50.852;4.400;2023-06-22T03:15:59;26.00;99.90
23579;DHT22;11967;50.852;4.400;2023-06-22T03:18:25;26.00;99.90
23579;DHT22;11967;50.852;4.400;2023-06-22T03:20:50;26.10;99.90
23579;DHT22;11967;50.852;4.400;2023-06-22T03:23:16;26.10;99.90
23579;DHT22;11967;50.852;4.400;2023-06-22T03:25:42;26.00;99.90
23579;DHT22;11967;50.852;4.400;2023-06-22T03:28:10;25.90;99.90
23579;DHT22;11967;50.852;4.400;2023-06-22T03:30:35;26.00;99.90
23579;DHT22;11967;50.852;4.400;2023-06-22T03:33:01;26.10;99.90
23579;DHT22;11967;50.852;4.400;2023-06-22T03:35:27;26.10;99.90
23579;DHT22;11967;50.852;4.400;2023-06-22T03:37:53;26.10;99.90
23579;DHT22;11967;50.852;4.400;2023-06-22T03:40:19;26.10;99.90
23579;DHT22;11967;50.852;4.400;2023-06-22T03:42:45;26.10;99.90
23579;DHT22;11967;50.852;4.400;2023-06-22T03:45:10;26.10;99.90
23579;DHT22;11967;50.852;4.400;2023-06-22T03:47:37;26.00;99.90
23579;DHT22;11967;50.852;4.400;2023-06-22T03:50:03;26.20;99.90
23579;DHT22;11967;50.852;4.400;2023-06-22T03:52:31;26.10;99.90
23579;DHT22;11967;50.852;4.400;2023-06-22T03:54:57;26.10;99.90
23579;DHT22;11967;50.852;4.400;2023-06-22T03:57:31;26.20;99.90
23579;DHT22;11967;50.852;4.400;2023-06-22T03:59:58;26.30;99.90
23579;DHT22;11967;50.852;4.400;2023-06-22T04:02:24;26.30;99.90
23579;DHT22;11967;50.852;4.400;2023-06-22T04:04:50;26.10;99.90
23579;DHT22;11967;50.852;4.400;2023-06-22T04:07:16;26.10;99.90
23579;DHT22;11967;50.852;4.400;2023-06-22T04:09:43;26.10;99.90
23579;DHT22;11967;50.852;4.400;2023-06-22T04:12:09;26.00;99.90
23579;DHT22;11967;50.852;4.400;2023-06-22T04:14:34;25.90;99.90
23579;DHT22;11967;50.852;4.400;2023-06-22T04:17:01;25.90;99.90
23579;DHT22;11967;50.852;4.400;2023-06-22T04:19:27;25.90;99.90
23579;DHT22;11967;50.852;4.400;2023-06-22T04:21:52;26.00;99.90
23579;DHT22;11967;50.852;4.400;2023-06-22T04:24:20;26.00;99.90
23579;DHT22;11967;50.852;4.400;2023-06-22T04:26:45;25.80;99.90
23579;DHT22;11967;50.852;4.400;2023-06-22T04:29:12;26.00;99.90
23579;DHT22;11967;50.852;4.400;2023-06-22T04:31:38;26.10;99.90
23579;DHT22;11967;50.852;4.400;2023-06-22T04:34:05;26.20;99.90
23579;DHT22;11967;50.852;4.400;2023-06-22T04:36:39;26.30;99.90
23579;DHT22;11967;50.852;4.400;2023-06-22T04:39:07;26.20;99.90
23579;DHT22;11967;50.852;4.400;2023-06-22T04:41:39;26.30;99.90
23579;DHT22;11967;50.852;4.400;2023-06-22T04:44:09;26.20;99.90
23579;DHT22;11967;50.852;4.400;2023-06-22T04:46:35;26.20;99.90
23579;DHT22;11967;50.852;4.400;2023-06-22T04:49:07;26.30;99.90
23579;DHT22;11967;50.852;4.400;2023-06-22T04:51:39;26.30;99.90
23579;DHT22;11967;50.852;4.400;2023-06-22T04:54:05;26.40;99.90
23579;DHT22;11967;50.852;4.400;2023-06-22T04:56:31;26.50;99.90
23579;DHT22;11967;50.852;4.400;2023-06-22T04:58:58;26.50;99.90
23579;DHT22;11967;50.852;4.400;2023-06-22T05:01:24;26.50;99.90
23579;DHT22;11967;50.852;4.400;2023-06-22T05:03:50;26.40;99.90
23579;DHT22;11967;50.852;4.400;2023-06-22T05:06:21;26.40;99.90
23579;DHT22;11967;50.852;4.400;2023-06-22T05:08:47;26.50;99.90
23579;DHT22;11967;50.852;4.400;2023-06-22T05:11:12;26.50;99.90
23579;DHT22;11967;50.852;4.400;2023-06-22T05:13:38;26.50;99.90
23579;DHT22;11967;50.852;4.400;2023-06-22T05:16:04;26.60;99.90
23579;DHT22;11967;50.852;4.400;2023-06-22T05:18:31;26.70;99.90
23579;DHT22;11967;50.852;4.400;2023-06-22T05:20:58;26.70;99.90
23579;DHT22;11967;50.852;4.400;2023-06-22T05:23:24;26.70;99.90
23579;DHT22;11967;50.852;4.400;2023-06-22T05:25:51;26.70;99.90
23579;DHT22;11967;50.852;4.400;2023-06-22T05:28:16;26.60;99.90
23579;DHT22;11967;50.852;4.400;2023-06-22T05:30:42;26.50;99.90
23579;DHT22;11967;50.852;4.400;2023-06-22T05:33:08;26.50;99.90
23579;DHT22;11967;50.852;4.400;2023-06-22T05:35:33;26.50;99.90
23579;DHT22;11967;50.852;4.400;2023-06-22T05:37:59;26.60;99.90
23579;DHT22;11967;50.852;4.400;2023-06-22T05:40:25;26.60;99.90
23579;DHT22;11967;50.852;4.400;2023-06-22T05:42:50;26.60;99.90
23579;DHT22;11967;50.852;4.400;2023-06-22T05:45:16;26.60;99.90
23579;DHT22;11967;50.852;4.400;2023-06-22T05:47:42;26.70;99.90
23579;DHT22;11967;50.852;4.400;2023-06-22T05:50:08;26.70;99.90
23579;DHT22;11967;50.852;4.400;2023-06-22T05:52:34;26.80;99.90
23579;DHT22;11967;50.852;4.400;2023-06-22T05:55:01;26.80;99.90
23579;DHT22;11967;50.852;4.400;2023-06-22T05:57:27;26.90;99.90
23579;DHT22;11967;50.852;4.400;2023-06-22T05:59:53;26.90;99.90
23579;DHT22;11967;50.852;4.400;2023-06-22T06:02:19;26.90;99.90
23579;DHT22;11967;50.852;4.400;2023-06-22T06:04:45;26.90;99.90
23579;DHT22;11967;50.852;4.400;2023-06-22T06:07:11;26.90;99.90
23579;DHT22;11967;50.852;4.400;2023-06-22T06:09:37;26.90;99.90
23579;DHT22;11967;50.852;4.400;2023-06-22T06:12:03;27.00;99.90
23579;DHT22;11967;50.852;4.400;2023-06-22T06:14:38;27.00;99.90
23579;DHT22;11967;50.852;4.400;2023-06-22T06:17:04;27.00;99.90
23579;DHT22;11967;50.852;4.400;2023-06-22T06:19:30;27.00;99.90
23579;DHT22;11967;50.852;4.400;2023-06-22T06:21:56;27.00;99.90
23579;DHT22;11967;50.852;4.400;2023-06-22T06:24:22;27.00;99.90
23579;DHT22;11967;50.852;4.400;2023-06-22T06:26:48;27.00;99.90
23579;DHT22;11967;50.852;4.400;2023-06-22T06:29:14;27.00;99.90
23579;DHT22;11967;50.852;4.400;2023-06-22T06:31:41;27.00;99.90
23579;DHT22;11967;50.852;4.400;2023-06-22T06:34:07;27.00;99.90
23579;DHT22;11967;50.852;4.400;2023-06-22T06:36:32;27.00;99.90
23579;DHT22;11967;50.852;4.400;2023-06-22T06:38:58;27.00;99.90
23579;DHT22;11967;50.852;4.400;2023-06-22T06:41:24;27.00;99.90
23579;DHT22;11967;50.852;4.400;2023-06-22T06:43:50;27.00;99.90
23579;DHT22;11967;50.852;4.400;2023-06-22T06:46:21;27.00;99.90
23579;DHT22;11967;50.852;4.400;2023-06-22T06:48:47;27.00;99.90
23579;DHT22;11967;50.852;4.400;2023-06-22T06:51:13;27.00;99.90
23579;DHT22;11967;50.852;4.400;2023-06-22T06:53:38;27.00;99.90
23579;DHT22;11967;50.852;4.400;2023-06-22T06:56:05;27.00;99.90
23579;DHT22;11967;50.852;4.400;2023-06-22T06:58:31;26.70;99.90
23579;DHT22;11967;50.852;4.400;2023-06-22T07:00:57;26.50;99.90
23579;DHT22;11967;50.852;4.400;2023-06-22T07:03:22;26.20;99.90
23579;DHT22;11967;50.852;4.400;2023-06-22T07:05:48;26.20;99.90
23579;DHT22;11967;50.852;4.400;2023-06-22T07:08:13;26.10;99.90
23579;DHT22;11967;50.852;4.400;2023-06-22T07:10:40;26.20;99.90
23579;DHT22;11967;50.852;4.400;2023-06-22T07:13:06;26.20;99.90
23579;DHT22;11967;50.852;4.400;2023-06-22T07:15:32;26.30;99.90
23579;DHT22;11967;50.852;4.400;2023-06-22T07:17:57;26.30;99.90
23579;DHT22;11967;50.852;4.400;2023-06-22T07:20:23;26.30;99.90
23579;DHT22;11967;50.852;4.400;2023-06-22T07:22:48;26.40;99.90
23579;DHT22;11967;50.852;4.400;2023-06-22T07:25:14;26.30;99.90
23579;DHT22;11967;50.852;4.400;2023-06-22T07:27:56;26.40;99.90
23579;DHT22;11967;50.852;4.400;2023-06-22T07:30:22;26.30;99.90
23579;DHT22;11967;50.852;4.400;2023-06-22T07:32:48;26.50;99.90
23579;DHT22;11967;50.852;4.400;2023-06-22T07:35:14;26.50;99.90
23579;DHT22;11967;50.852;4.400;2023-06-22T07:37:42;26.60;99.90
23579;DHT22;11967;50.852;4.400;2023-06-22T07:40:10;26.70;99.90
23579;DHT22;11967;50.852;4.400;2023-06-22T07:42:35;26.70;99.90
23579;DHT22;11967;50.852;4.400;2023-06-22T07:45:05;26.80;99.90
23579;DHT22;11967;50.852;4.400;2023-06-22T07:47:33;26.90;99.90
23579;DHT22;11967;50.852;4.400;2023-06-22T07:50:03;26.80;99.90
23579;DHT22;11967;50.852;4.400;2023-06-22T07:52:30;26.90;99.90
23579;DHT22;11967;50.852;4.400;2023-06-22T07:54:55;27.00;99.90
23579;DHT22;11967;50.852;4.400;2023-06-22T07:57:21;27.00;99.90
23579;DHT22;11967;50.852;4.400;2023-06-22T07:59:47;27.00;99.90
23579;DHT22;11967;50.852;4.400;2023-06-22T08:02:13;27.00;99.90
23579;DHT22;11967;50.852;4.400;2023-06-22T08:04:39;27.00;99.90
23579;DHT22;11967;50.852;4.400;2023-06-22T08:07:05;27.00;99.90
23579;DHT22;11967;50.852;4.400;2023-06-22T08:09:31;27.00;99.90
23579;DHT22;11967;50.852;4.400;2023-06-22T08:11:58;27.00;99.90
23579;DHT22;11967;50.852;4.400;2023-06-22T08:14:27;27.00;99.90
23579;DHT22;11967;50.852;4.400;2023-06-22T08:16:52;27.00;99.90
23579;DHT22;11967;50.852;4.400;2023-06-22T08:19:18;27.10;99.90
23579;DHT22;11967;50.852;4.400;2023-06-22T08:21:44;27.00;99.90
23579;DHT22;11967;50.852;4.400;2023-06-22T08:24:10;27.10;99.90
23579;DHT22;11967;50.852;4.400;2023-06-22T08:26:36;27.00;99.90
23579;DHT22;11967;50.852;4.400;2023-06-22T08:29:06;27.10;99.90
23579;DHT22;11967;50.852;4.400;2023-06-22T08:31:32;27.00;99.90
23579;DHT22;11967;50.852;4.400;2023-06-22T08:34:00;27.10;99.90
23579;DHT22;11967;50.852;4.400;2023-06-22T08:36:26;27.00;99.90
23579;DHT22;11967;50.852;4.400;2023-06-22T08:38:54;27.10;99.90
23579;DHT22;11967;50.852;4.400;2023-06-22T08:41:25;27.10;99.90
23579;DHT22;11967;50.852;4.400;2023-06-22T08:43:51;26.90;99.90
23579;DHT22;11967;50.852;4.400;2023-06-22T08:46:16;26.70;99.90
23579;DHT22;11967;50.852;4.400;2023-06-22T08:48:47;26.70;99.90
23579;DHT22;11967;50.852;4.400;2023-06-22T08:51:12;26.60;99.90
23579;DHT22;11967;50.852;4.400;2023-06-22T08:53:39;26.60;99.90
23579;DHT22;11967;50.852;4.400;2023-06-22T08:56:05;26.50;99.90
23579;DHT22;11967;50.852;4.400;2023-06-22T08:58:30;26.50;99.90
23579;DHT22;11967;50.852;4.400;2023-06-22T09:00:56;26.40;99.90
23579;DHT22;11967;50.852;4.400;2023-06-22T09:03:22;26.40;99.90
23579;DHT22;11967;50.852;4.400;2023-06-22T09:05:51;26.40;99.90
23579;DHT22;11967;50.852;4.400;2023-06-22T09:08:17;26.40;99.90
23579;DHT22;11967;50.852;4.400;2023-06-22T09:10:42;26.40;99.90
23579;DHT22;11967;50.852;4.400;2023-06-22T09:13:08;26.40;99.90
23579;DHT22;11967;50.852;4.400;2023-06-22T09:15:34;26.30;99.90
23579;DHT22;11967;50.852;4.400;2023-06-22T09:18:00;26.30;99.90
23579;DHT22;11967;50.852;4.400;2023-06-22T09:20:26;26.30;99.90
23579;DHT22;11967;50.852;4.400;2023-06-22T09:22:51;26.20;99.90
23579;DHT22;11967;50.852;4.400;2023-06-22T09:25:17;26.10;99.90
23579;DHT22;11967;50.852;4.400;2023-06-22T09:27:46;26.00;99.90
23579;DHT22;11967;50.852;4.400;2023-06-22T09:30:14;25.90;99.90
23579;DHT22;11967;50.852;4.400;2023-06-22T09:32:41;26.00;99.90
23579;DHT22;11967;50.852;4.400;2023-06-22T09:35:07;26.00;99.90
23579;DHT22;11967;50.852;4.400;2023-06-22T09:37:35;25.90;99.90
23579;DHT22;11967;50.852;4.400;2023-06-22T09:40:02;25.90;99.90
23579;DHT22;11967;50.852;4.400;2023-06-22T09:42:34;26.00;99.90
23579;DHT22;11967;50.852;4.400;2023-06-22T09:44:59;26.20;99.90
23579;DHT22;11967;50.852;4.400;2023-06-22T09:47:27;26.20;99.90
23579;DHT22;11967;50.852;4.400;2023-06-22T09:49:53;26.20;99.90
23579;DHT22;11967;50.852;4.400;2023-06-22T09:52:21;26.10;99.90
23579;DHT22;11967;50.852;4.400;2023-06-22T09:54:47;25.90;99.90
23579;DHT22;11967;50.852;4.400;2023-06-22T09:57:12;25.70;99.90
23579;DHT22;11967;50.852;4.400;2023-06-22T09:59:39;25.50;99.90
23579;DHT22;11967;50.852;4.400;2023-06-22T10:02:08;25.30;99.90
23579;DHT22;11967;50.852;4.400;2023-06-22T10:04:34;25.20;99.90
23579;DHT22;11967;50.852;4.400;2023-06-22T10:07:00;25.00;99.90
23579;DHT22;11967;50.852;4.400;2023-06-22T10:09:26;25.00;99.90
23579;DHT22;11967;50.852;4.400;2023-06-22T10:11:52;24.80;99.90
23579;DHT22;11967;50.852;4.400;2023-06-22T10:14:18;24.80;99.90
23579;DHT22;11967;50.852;4.400;2023-06-22T10:16:43;24.80;99.90
23579;DHT22;11967;50.852;4.400;2023-06-22T10:19:10;24.80;99.90
23579;DHT22;11967;50.852;4.400;2023-06-22T10:21:38;24.80;99.90
23579;DHT22;11967;50.852;4.400;2023-06-22T10:24:04;24.70;99.90
23579;DHT22;11967;50.852;4.400;2023-06-22T10:26:33;24.70;99.90
23579;DHT22;11967;50.852;4.400;2023-06-22T10:28:59;24.60;99.90
23579;DHT22;11967;50.852;4.400;2023-06-22T10:31:25;24.50;99.90
23579;DHT22;11967;50.852;4.400;2023-06-22T10:33:51;24.50;99.90
23579;DHT22;11967;50.852;4.400;2023-06-22T10:36:16;24.50;99.90
23579;DHT22;11967;50.852;4.400;2023-06-22T10:38:43;24.60;99.90
23579;DHT22;11967;50.852;4.400;2023-06-22T10:41:08;24.50;99.90
23579;DHT22;11967;50.852;4.400;2023-06-22T10:43:34;24.50;99.90
23579;DHT22;11967;50.852;4.400;2023-06-22T10:46:00;24.60;99.90
23579;DHT22;11967;50.852;4.400;2023-06-22T10:48:25;24.60;99.90
23579;DHT22;11967;50.852;4.400;2023-06-22T10:50:51;24.60;99.90
23579;DHT22;11967;50.852;4.400;2023-06-22T10:53:18;24.60;99.90
23579;DHT22;11967;50.852;4.400;2023-06-22T10:55:45;24.80;99.90
23579;DHT22;11967;50.852;4.400;2023-06-22T10:58:12;24.90;99.90
23579;DHT22;11967;50.852;4.400;2023-06-22T11:00:37;25.00;99.90
23579;DHT22;11967;50.852;4.400;2023-06-22T11:03:03;24.90;99.90
23579;DHT22;11967;50.852;4.400;2023-06-22T11:05:29;24.80;99.90
23579;DHT22;11967;50.852;4.400;2023-06-22T11:07:54;24.80;99.90
23579;DHT22;11967;50.852;4.400;2023-06-22T11:10:20;24.80;99.90
23579;DHT22;11967;50.852;4.400;2023-06-22T11:12:45;24.90;99.90
23579;DHT22;11967;50.852;4.400;2023-06-22T11:15:11;24.90;99.90
23579;DHT22;11967;50.852;4.400;2023-06-22T11:17:37;24.90;99.90
23579;DHT22;11967;50.852;4.400;2023-06-22T11:20:03;24.90;99.90
23579;DHT22;11967;50.852;4.400;2023-06-22T11:22:39;24.80;99.90
23579;DHT22;11967;50.852;4.400;2023-06-22T11:25:06;24.90;99.90
23579;DHT22;11967;50.852;4.400;2023-06-22T11:27:32;24.80;99.90
23579;DHT22;11967;50.852;4.400;2023-06-22T11:29:57;24.70;99.90
23579;DHT22;11967;50.852;4.400;2023-06-22T11:32:23;24.70;99.90
23579;DHT22;11967;50.852;4.400;2023-06-22T11:34:49;24.70;99.90
23579;DHT22;11967;50.852;4.400;2023-06-22T11:37:15;24.70;99.90
23579;DHT22;11967;50.852;4.400;2023-06-22T11:39:44;24.70;99.90
23579;DHT22;11967;50.852;4.400;2023-06-22T11:42:10;24.70;99.90
23579;DHT22;11967;50.852;4.400;2023-06-22T11:44:35;24.70;99.90
23579;DHT22;11967;50.852;4.400;2023-06-22T11:47:01;24.60;99.90
23579;DHT22;11967;50.852;4.400;2023-06-22T11:49:30;24.60;99.90
23579;DHT22;11967;50.852;4.400;2023-06-22T11:51:56;24.50;99.90
23579;DHT22;11967;50.852;4.400;2023-06-22T11:54:21;24.60;99.90
23579;DHT22;11967;50.852;4.400;2023-06-22T11:56:47;24.60;99.90
23579;DHT22;11967;50.852;4.400;2023-06-22T11:59:13;24.50;99.90
23579;DHT22;11967;50.852;4.400;2023-06-22T12:01:39;24.50;99.90
23579;DHT22;11967;50.852;4.400;2023-06-22T12:04:05;24.50;99.90
23579;DHT22;11967;50.852;4.400;2023-06-22T12:06:33;24.50;99.90
23579;DHT22;11967;50.852;4.400;2023-06-22T12:09:03;24.40;99.90
23579;DHT22;11967;50.852;4.400;2023-06-22T12:11:30;24.40;99.90
23579;DHT22;11967;50.852;4.400;2023-06-22T12:13:56;24.40;99.90
23579;DHT22;11967;50.852;4.400;2023-06-22T12:16:22;24.40;99.90
23579;DHT22;11967;50.852;4.400;2023-06-22T12:18:49;24.40;99.90
23579;DHT22;11967;50.852;4.400;2023-06-22T12:21:15;24.50;99.90
23579;DHT22;11967;50.852;4.400;2023-06-22T12:23:41;24.60;99.90
23579;DHT22;11967;50.852;4.400;2023-06-22T12:26:06;24.60;99.90
23579;DHT22;11967;50.852;4.400;2023-06-22T12:28:32;24.60;99.90
23579;DHT22;11967;50.852;4.400;2023-06-22T12:30:57;24.60;99.90
23579;DHT22;11967;50.852;4.400;2023-06-22T12:33:23;24.60;99.90
23579;DHT22;11967;50.852;4.400;2023-06-22T12:35:48;24.50;99.90
23579;DHT22;11967;50.852;4.400;2023-06-22T12:38:14;24.30;99.90
23579;DHT22;11967;50.852;4.400;2023-06-22T12:40:40;24.30;99.90
23579;DHT22;11967;50.852;4.400;2023-06-22T12:43:06;24.30;99.90
23579;DHT22;11967;50.852;4.400;2023-06-22T12:45:33;24.40;99.90
23579;DHT22;11967;50.852;4.400;2023-06-22T12:48:00;24.40;99.90
23579;DHT22;11967;50.852;4.400;2023-06-22T12:50:26;24.50;99.90
23579;DHT22;11967;50.852;4.400;2023-06-22T12:52:51;24.50;99.90
23579;DHT22;11967;50.852;4.400;2023-06-22T12:55:17;24.40;99.90
23579;DHT22;11967;50.852;4.400;2023-06-22T12:57:43;24.30;99.90
23579;DHT22;11967;50.852;4.400;2023-06-22T13:00:09;24.20;99.90
23579;DHT22;11967;50.852;4.400;2023-06-22T13:02:36;24.30;99.90
23579;DHT22;11967;50.852;4.400;2023-06-22T13:05:02;24.30;99.90
23579;DHT22;11967;50.852;4.400;2023-06-22T13:07:30;24.30;99.90
23579;DHT22;11967;50.852;4.400;2023-06-22T13:09:57;24.30;99.90
23579;DHT22;11967;50.852;4.400;2023-06-22T13:12:23;24.30;99.90
23579;DHT22;11967;50.852;4.400;2023-06-22T13:14:49;24.30;99.90
23579;DHT22;11967;50.852;4.400;2023-06-22T13:17:15;24.30;99.90
23579;DHT22;11967;50.852;4.400;2023-06-22T13:19:41;24.10;99.90
23579;DHT22;11967;50.852;4.400;2023-06-22T13:22:29;24.10;99.90
23579;DHT22;11967;50.852;4.400;2023-06-22T13:24:56;24.00;99.90
23579;DHT22;11967;50.852;4.400;2023-06-22T13:27:22;24.00;99.90
23579;DHT22;11967;50.852;4.400;2023-06-22T13:29:47;23.90;99.90
23579;DHT22;11967;50.852;4.400;2023-06-22T13:32:13;23.90;99.90
23579;DHT22;11967;50.852;4.400;2023-06-22T13:34:39;23.90;99.90
23579;DHT22;11967;50.852;4.400;2023-06-22T13:37:05;23.90;99.90
23579;DHT22;11967;50.852;4.400;2023-06-22T13:39:31;23.90;99.90
23579;DHT22;11967;50.852;4.400;2023-06-22T13:41:57;23.90;99.90
23579;DHT22;11967;50.852;4.400;2023-06-22T13:44:25;23.90;99.90
23579;DHT22;11967;50.852;4.400;2023-06-22T13:46:54;23.90;99.90
23579;DHT22;11967;50.852;4.400;2023-06-22T13:49:20;23.90;99.90
23579;DHT22;11967;50.852;4.400;2023-06-22T13:51:47;23.80;99.90
23579;DHT22;11967;50.852;4.400;2023-06-22T13:54:13;23.80;99.90
23579;DHT22;11967;50.852;4.400;2023-06-22T13:56:39;23.80;99.90
23579;DHT22;11967;50.852;4.400;2023-06-22T13:59:05;23.80;99.90
23579;DHT22;11967;50.852;4.400;2023-06-22T14:01:34;23.70;99.90
23579;DHT22;11967;50.852;4.400;2023-06-22T14:04:00;23.70;99.90
23579;DHT22;11967;50.852;4.400;2023-06-22T14:06:30;23.70;99.90
23579;DHT22;11967;50.852;4.400;2023-06-22T14:09:05;23.70;99.90
23579;DHT22;11967;50.852;4.400;2023-06-22T14:11:42;23.70;99.90
23579;DHT22;11967;50.852;4.400;2023-06-22T14:14:08;23.70;99.90
23579;DHT22;11967;50.852;4.400;2023-06-22T14:16:34;23.70;99.90
23579;DHT22;11967;50.852;4.400;2023-06-22T14:19:00;23.70;99.90
23579;DHT22;11967;50.852;4.400;2023-06-22T14:21:26;23.70;99.90
23579;DHT22;11967;50.852;4.400;2023-06-22T14:23:51;23.70;99.90
23579;DHT22;11967;50.852;4.400;2023-06-22T14:26:17;23.80;99.90
23579;DHT22;11967;50.852;4.400;2023-06-22T14:28:45;23.80;99.90
23579;DHT22;11967;50.852;4.400;2023-06-22T14:31:17;23.70;99.90
23579;DHT22;11967;50.852;4.400;2023-06-22T14:33:46;23.70;99.90
23579;DHT22;11967;50.852;4.400;2023-06-22T14:36:12;23.80;99.90
23579;DHT22;11967;50.852;4.400;2023-06-22T14:38:38;23.70;99.90
23579;DHT22;11967;50.852;4.400;2023-06-22T14:41:04;23.70;99.90
23579;DHT22;11967;50.852;4.400;2023-06-22T14:43:30;23.70;99.90
23579;DHT22;11967;50.852;4.400;2023-06-22T14:45:56;23.70;99.90
23579;DHT22;11967;50.852;4.400;2023-06-22T14:48:22;23.60;99.90
23579;DHT22;11967;50.852;4.400;2023-06-22T14:50:48;23.60;99.90
23579;DHT22;11967;50.852;4.400;2023-06-22T14:53:13;23.60;99.90
23579;DHT22;11967;50.852;4.400;2023-06-22T14:55:41;23.60;99.90
23579;DHT22;11967;50.852;4.400;2023-06-22T14:58:06;23.70;99.90
23579;DHT22;11967;50.852;4.400;2023-06-22T15:00:32;23.60;99.90
23579;DHT22;11967;50.852;4.400;2023-06-22T15:02:58;23.60;99.90
23579;DHT22;11967;50.852;4.400;2023-06-22T15:05:25;23.70;99.90
23579;DHT22;11967;50.852;4.400;2023-06-22T15:07:50;23.60;99.90
23579;DHT22;11967;50.852;4.400;2023-06-22T15:10:16;23.70;99.90
23579;DHT22;11967;50.852;4.400;2023-06-22T15:12:46;23.80;99.90
23579;DHT22;11967;50.852;4.400;2023-06-22T15:15:12;23.80;99.90
23579;DHT22;11967;50.852;4.400;2023-06-22T15:17:38;23.80;99.90
23579;DHT22;11967;50.852;4.400;2023-06-22T15:20:04;23.80;99.90
23579;DHT22;11967;50.852;4.400;2023-06-22T15:22:30;23.80;99.90
23579;DHT22;11967;50.852;4.400;2023-06-22T15:24:56;23.80;99.90
23579;DHT22;11967;50.852;4.400;2023-06-22T15:27:24;23.80;99.90
23579;DHT22;11967;50.852;4.400;2023-06-22T15:29:50;23.80;99.90